Time,TemperatureF,DewpointF,PressureIn,WindDirection,WindDirectionDegrees,WindSpeedMPH,WindSpeedGustMPH,Humidity,HourlyPrecipIn,Conditions,Clouds,dailyrainin,SoftwareType,DateUTC
2013-01-19 00:01:00,58.1,42.9,30.25,NNE,31,5.8,5.8,57,0.00,OVC,,0.00,WeatherDisplay:10.37,2013-01-19 05:01:00,
2013-01-19 00:02:00,58.1,42.9,30.25,NNW,344,6.3,6.3,57,0.00,OVC,,0.00,WeatherDisplay:10.37,2013-01-19 05:02:00,
2013-01-19 00:03:00,58.1,42.9,30.25,NNW,346,5.8,5.8,57,0.00,OVC,,0.00,WeatherDisplay:10.37,2013-01-19 05:03:00,
2013-01-19 00:08:00,57.9,42.3,30.25,NNE,27,6.3,6.3,56,0.00,OVC,,0.00,WeatherDisplay:10.37,2013-01-19 05:08:00,
2013-01-19 00:16:00,57.9,42.3,30.25,North,357,5.8,5.8,56,0.00,OVC,,0.00,WeatherDisplay:10.37,2013-01-19 05:16:00,
2013-01-19 00:21:00,57.9,41.8,30.25,NW,320,8.1,8.1,55,0.00,OVC,,0.00,WeatherDisplay:10.37,2013-01-19 05:21:00,
2013-01-19 00:31:00,57.9,41.4,30.22,NNE,24,8.1,8.1,54,0.00,OVC,,0.00,WeatherDisplay:10.37,2013-01-19 05:31:00,
2013-01-19 00:36:00,57.7,40.7,30.22,NNE,15,5.8,5.8,53,0.00,OVC,,0.00,WeatherDisplay:10.37,2013-01-19 05:36:00,
2013-01-19 00:46:00,57.7,41.2,30.22,North,8,5.8,5.8,54,0.00,OVC,,0.00,WeatherDisplay:10.37,2013-01-19 05:46:00,
2013-01-19 00:51:00,57.6,40.5,30.22,NE,38,8.1,8.1,53,0.00,OVC,,0.00,WeatherDisplay:10.37,2013-01-19 05:51:00,
2013-01-19 01:00:00,57.6,41.0,30.22,North,353,5.8,5.8,54,0.00,OVC,,0.00,WeatherDisplay:10.37,2013-01-19 06:00:00,
2013-01-19 01:01:00,57.6,41.0,30.22,NNE,22,8.1,8.1,54,0.00,OVC,,0.00,WeatherDisplay:10.37,2013-01-19 06:01:00,
2013-01-19 01:05:00,57.6,41.0,30.22,NNE,15,9.2,9.2,54,0.00,OVC,,0.00,WeatherDisplay:10.37,2013-01-19 06:05:00,
2013-01-19 01:10:00,57.6,41.0,30.22,ENE,66,8.1,8.1,54,0.00,OVC,,0.00,WeatherDisplay:10.37,2013-01-19 06:10:00,
2013-01-19 01:16:00,57.4,40.9,30.22,North,9,8.1,8.1,54,0.00,OVC,,0.00,WeatherDisplay:10.37,2013-01-19 06:16:00,
2013-01-19 01:21:00,57.2,40.7,30.22,North,8,5.8,5.8,54,0.00,OVC,,0.00,WeatherDisplay:10.37,2013-01-19 06:21:00,
2013-01-19 01:31:00,56.8,41.3,30.22,ESE,109,5.8,5.8,56,0.00,OVC,,0.00,WeatherDisplay:10.37,2013-01-19 06:31:00,
2013-01-19 01:36:00,56.8,41.8,30.22,NE,38,3.4,3.4,57,0.00,OVC,,0.00,WeatherDisplay:10.37,2013-01-19 06:36:00,
2013-01-19 01:46:00,56.8,41.8,30.22,North,357,5.8,5.8,57,0.00,OVC,,0.00,WeatherDisplay:10.37,2013-01-19 06:46:00,
2013-01-19 01:51:00,56.8,41.8,30.22,NE,34,5.8,5.8,57,0.00,OVC,,0.00,WeatherDisplay:10.37,2013-01-19 06:51:00,
2013-01-19 02:00:00,56.8,42.2,30.22,NNW,345,4.9,4.9,58,0.00,OVC,,0.00,WeatherDisplay:10.37,2013-01-19 07:00:00,
2013-01-19 02:01:00,56.8,42.2,30.22,NNE,29,3.4,4.0,58,0.00,OVC,,0.00,WeatherDisplay:10.37,2013-01-19 07:01:00,
2013-01-19 02:05:00,56.8,42.2,30.22,East,87,5.8,5.8,58,0.00,OVC,,0.00,WeatherDisplay:10.37,2013-01-19 07:05:00,
2013-01-19 02:10:00,56.8,42.2,30.22,NNE,30,3.4,4.5,58,0.00,OVC,,0.00,WeatherDisplay:10.37,2013-01-19 07:10:00,
2013-01-19 02:16:00,56.8,42.2,30.22,NNW,346,8.0,8.0,58,0.00,OVC,,0.00,WeatherDisplay:10.37,2013-01-19 07:16:00,
2013-01-19 02:21:00,56.8,42.7,30.22,North,357,4.0,4.0,59,0.00,OVC,,0.00,WeatherDisplay:10.37,2013-01-19 07:21:00,
2013-01-19 02:31:00,56.8,43.1,30.22,NE,45,5.8,5.8,60,0.00,OVC,,0.00,WeatherDisplay:10.37,2013-01-19 07:31:00,
2013-01-19 02:36:00,56.8,43.1,30.22,NNE,24,5.8,5.8,60,0.00,OVC,,0.00,WeatherDisplay:10.37,2013-01-19 07:36:00,
2013-01-19 02:46:00,56.8,43.1,30.19,NNE,22,5.8,5.8,60,0.00,OVC,,0.00,WeatherDisplay:10.37,2013-01-19 07:46:00,
2013-01-19 02:51:00,56.8,43.5,30.19,NNE,33,6.3,6.3,61,0.00,OVC,,0.00,WeatherDisplay:10.37,2013-01-19 07:51:00,
2013-01-19 03:00:00,56.8,43.5,30.19,NNE,27,4.6,4.6,61,0.00,OVC,,0.00,WeatherDisplay:10.37,2013-01-19 08:00:00,
2013-01-19 03:01:00,56.8,43.5,30.19,NNE,27,5.8,5.8,61,0.00,OVC,,0.00,WeatherDisplay:10.37,2013-01-19 08:01:00,
2013-01-19 03:05:00,56.8,43.5,30.19,NNE,27,5.8,5.8,61,0.00,OVC,,0.00,WeatherDisplay:10.37,2013-01-19 08:05:00,
2013-01-19 03:10:00,56.8,43.5,30.19,NNE,20,5.8,5.8,61,0.00,OVC,,0.00,WeatherDisplay:10.37,2013-01-19 08:10:00,
2013-01-19 03:16:00,56.8,43.5,30.19,East,81,5.8,0.0,61,0.00,OVC,,0.00,WeatherDisplay:10.37,2013-01-19 08:16:00,
2013-01-19 03:21:00,56.8,44.0,30.19,North,4,8.1,8.1,62,0.00,OVC,,0.00,WeatherDisplay:10.37,2013-01-19 08:21:00,
2013-01-19 03:31:00,56.8,44.0,30.19,North,1,6.9,6.9,62,0.00,OVC,,0.00,WeatherDisplay:10.37,2013-01-19 08:31:00,
2013-01-19 03:36:00,56.8,44.0,30.19,NNE,17,9.2,9.2,62,0.00,OVC,,0.00,WeatherDisplay:10.37,2013-01-19 08:36:00,
2013-01-19 03:46:00,56.8,44.0,30.19,North,357,5.8,5.8,62,0.00,OVC,,0.00,WeatherDisplay:10.37,2013-01-19 08:46:00,
2013-01-19 03:51:00,56.8,44.4,30.19,North,353,5.8,5.8,63,0.00,OVC,,0.00,WeatherDisplay:10.37,2013-01-19 08:51:00,
2013-01-19 04:00:00,56.7,44.2,30.19,NE,40,5.8,5.8,63,0.00,OVC,,0.00,WeatherDisplay:10.37,2013-01-19 09:00:00,
2013-01-19 04:01:00,56.5,44.4,30.19,NNE,31,5.8,5.8,64,0.00,OVC,,0.00,WeatherDisplay:10.37,2013-01-19 09:01:00,
2013-01-19 04:05:00,56.7,44.2,30.19,North,353,4.6,4.6,63,0.00,OVC,,0.00,WeatherDisplay:10.37,2013-01-19 09:05:00,
2013-01-19 04:10:00,56.5,44.4,30.19,NNW,341,5.8,5.8,64,0.00,OVC,,0.00,WeatherDisplay:10.37,2013-01-19 09:10:00,
2013-01-19 04:16:00,56.3,44.3,30.19,NNE,25,3.4,3.4,64,0.00,OVC,,0.00,WeatherDisplay:10.37,2013-01-19 09:16:00,
2013-01-19 04:21:00,56.3,44.7,30.19,NE,53,3.4,0.0,65,0.00,OVC,,0.00,WeatherDisplay:10.37,2013-01-19 09:21:00,
2013-01-19 04:31:00,56.5,45.3,30.19,North,3,4.6,4.6,66,0.00,OVC,,0.00,WeatherDisplay:10.37,2013-01-19 09:31:00,
2013-01-19 04:36:00,56.7,45.4,30.19,NNW,346,5.8,5.8,66,0.00,OVC,,0.00,WeatherDisplay:10.37,2013-01-19 09:36:00,
2013-01-19 04:46:00,56.8,45.6,30.19,North,0,2.7,2.7,66,0.00,OVC,,0.00,WeatherDisplay:10.37,2013-01-19 09:46:00,
2013-01-19 04:51:00,56.8,45.6,30.19,NNE,15,3.4,3.4,66,0.00,OVC,,0.00,WeatherDisplay:10.37,2013-01-19 09:51:00,
2013-01-19 05:00:00,56.8,45.6,30.19,North,9,5.8,5.8,66,0.00,OVC,,0.00,WeatherDisplay:10.37,2013-01-19 10:00:00,
2013-01-19 05:01:00,57.0,46.2,30.19,NNE,15,5.8,5.8,67,0.00,OVC,,0.00,WeatherDisplay:10.37,2013-01-19 10:01:00,
2013-01-19 05:05:00,57.0,45.8,30.19,North,357,6.9,6.9,66,0.00,OVC,,0.00,WeatherDisplay:10.37,2013-01-19 10:05:00,
2013-01-19 05:10:00,57.0,46.2,30.19,North,2,3.6,3.6,67,0.00,OVC,,0.00,WeatherDisplay:10.37,2013-01-19 10:10:00,
2013-01-19 05:16:00,57.0,46.2,30.19,NNE,21,4.9,4.9,67,0.00,OVC,,0.00,WeatherDisplay:10.37,2013-01-19 10:16:00,
2013-01-19 05:21:00,57.0,46.2,30.19,East,89,5.8,5.8,67,0.00,OVC,,0.00,WeatherDisplay:10.37,2013-01-19 10:21:00,
2013-01-19 05:31:00,57.0,46.2,30.19,ENE,73,5.8,5.8,67,0.00,OVC,,0.00,WeatherDisplay:10.37,2013-01-19 10:31:00,
2013-01-19 05:36:00,57.0,46.2,30.19,NNE,23,5.8,5.8,67,0.00,OVC,,0.00,WeatherDisplay:10.37,2013-01-19 10:36:00,
2013-01-19 05:46:00,57.0,45.8,30.19,North,357,6.3,6.3,66,0.00,OVC,,0.00,WeatherDisplay:10.37,2013-01-19 10:46:00,
2013-01-19 05:51:00,56.8,46.0,30.19,North,2,5.8,5.8,67,0.00,OVC,,0.00,WeatherDisplay:10.37,2013-01-19 10:51:00,
2013-01-19 06:00:00,56.8,46.4,30.19,ENE,64,3.4,3.4,68,0.00,OVC,,0.00,WeatherDisplay:10.37,2013-01-19 11:00:00,
2013-01-19 06:01:00,56.8,46.8,30.19,NNW,340,5.8,0.0,69,0.00,-RA,,0.00,WeatherDisplay:10.37,2013-01-19 11:01:00,
2013-01-19 06:05:00,56.8,46.8,30.19,NE,56,3.6,3.6,69,0.00,-RA,,0.00,WeatherDisplay:10.37,2013-01-19 11:05:00,
2013-01-19 06:10:00,56.8,46.8,30.19,ENE,73,5.8,5.8,69,0.00,-RA,,0.00,WeatherDisplay:10.37,2013-01-19 11:10:00,
2013-01-19 07:46:00,58.1,48.0,30.22,NNE,30,5.8,5.8,69,0.00,OVC,,0.00,WeatherDisplay:10.37,2013-01-19 12:46:00,
2013-01-19 07:47:00,57.9,48.6,30.19,East,101,3.6,3.6,71,0.00,OVC,,0.00,WeatherDisplay:10.37,2013-01-19 12:47:00,
2013-01-19 07:48:00,57.9,48.6,30.19,East,90,5.4,5.4,71,0.00,OVC,,0.00,WeatherDisplay:10.37,2013-01-19 12:48:00,
2013-01-19 07:50:00,57.9,48.2,30.19,NE,56,4.6,4.6,70,0.00,OVC,,0.00,WeatherDisplay:10.37,2013-01-19 12:50:00,
2013-01-19 07:55:00,58.1,48.0,30.22,North,353,5.8,5.8,69,0.00,OVC,,0.00,WeatherDisplay:10.37,2013-01-19 12:55:00,
2013-01-19 08:00:00,58.1,48.0,30.22,NE,36,3.4,3.4,69,0.00,OVC,,0.00,WeatherDisplay:10.37,2013-01-19 13:00:00,
2013-01-19 08:01:00,58.5,47.9,30.22,North,349,5.8,5.8,68,0.00,OVC,,0.00,WeatherDisplay:10.37,2013-01-19 13:01:00,
2013-01-19 08:05:00,58.3,47.8,30.22,NE,36,5.8,5.8,68,0.00,OVC,,0.00,WeatherDisplay:10.37,2013-01-19 13:05:00,
2013-01-19 08:10:00,58.5,47.9,30.22,NNW,339,5.8,5.8,68,0.00,OVC,,0.00,WeatherDisplay:10.37,2013-01-19 13:10:00,
2013-01-19 08:16:00,58.6,47.3,30.22,NNE,12,4.0,4.0,66,0.00,OVC,,0.00,WeatherDisplay:10.37,2013-01-19 13:16:00,
2013-01-19 08:21:00,58.8,47.5,30.22,ENE,65,4.9,4.9,66,0.00,OVC,,0.00,WeatherDisplay:10.37,2013-01-19 13:21:00,
2013-01-19 08:31:00,58.8,47.5,30.22,North,353,5.8,5.8,66,0.00,OVC,,0.00,WeatherDisplay:10.37,2013-01-19 13:31:00,
2013-01-19 08:36:00,58.8,47.5,30.22,ESE,122,3.6,3.6,66,0.00,OVC,,0.00,WeatherDisplay:10.37,2013-01-19 13:36:00,
2013-01-19 08:46:00,59.2,47.8,30.22,NE,41,3.4,3.4,66,0.00,OVC,,0.00,WeatherDisplay:10.37,2013-01-19 13:46:00,
2013-01-19 08:51:00,59.4,48.0,30.22,North,0,3.4,3.4,66,0.00,OVC,,0.00,WeatherDisplay:10.37,2013-01-19 13:51:00,
2013-01-19 09:00:00,59.7,47.9,30.22,East,82,5.8,5.8,65,0.00,OVC,,0.00,WeatherDisplay:10.37,2013-01-19 14:00:00,
2013-01-19 09:01:00,59.9,48.1,30.22,NNE,20,9.2,9.2,65,0.00,OVC,,0.00,WeatherDisplay:10.37,2013-01-19 14:01:00,
2013-01-19 09:05:00,59.7,47.9,30.22,NNE,22,5.8,5.8,65,0.00,OVC,,0.00,WeatherDisplay:10.37,2013-01-19 14:05:00,
2013-01-19 09:10:00,59.9,48.1,30.22,NE,52,8.7,8.7,65,0.00,OVC,,0.00,WeatherDisplay:10.37,2013-01-19 14:10:00,
2013-01-19 09:16:00,60.3,48.9,30.22,NE,42,2.3,0.0,66,0.00,OVC,,0.00,WeatherDisplay:10.37,2013-01-19 14:16:00,
2013-01-19 09:21:00,61.0,49.9,30.22,NNW,332,5.4,5.4,67,0.00,OVC,,0.00,WeatherDisplay:10.37,2013-01-19 14:21:00,
2013-01-19 09:31:00,62.1,48.9,30.22,ENE,66,3.4,3.4,62,0.00,OVC,,0.00,WeatherDisplay:10.37,2013-01-19 14:31:00,
2013-01-19 09:36:00,62.6,48.5,30.22,North,7,3.4,3.6,60,0.00,OVC,,0.00,WeatherDisplay:10.37,2013-01-19 14:36:00,
2013-01-19 09:46:00,63.5,48.0,30.22,NNE,15,5.8,5.8,57,0.00,OVC,,0.00,WeatherDisplay:10.37,2013-01-19 14:46:00,
2013-01-19 09:51:00,63.7,47.2,30.22,NNE,20,3.6,3.6,55,0.00,OVC,,0.00,WeatherDisplay:10.37,2013-01-19 14:51:00,
2013-01-19 10:00:00,64.4,47.4,30.22,NE,46,5.8,5.8,54,0.00,OVC,,0.00,WeatherDisplay:10.37,2013-01-19 15:00:00,
2013-01-19 10:01:00,65.1,47.6,30.22,East,90,5.8,5.8,53,0.00,SCT,,0.00,WeatherDisplay:10.37,2013-01-19 15:01:00,
2013-01-19 10:05:00,64.8,47.7,30.22,NE,43,4.0,4.0,54,0.00,SCT,,0.00,WeatherDisplay:10.37,2013-01-19 15:05:00,
2013-01-19 10:10:00,65.1,47.6,30.22,NE,50,5.8,5.8,53,0.00,SCT,,0.00,WeatherDisplay:10.37,2013-01-19 15:10:00,
2013-01-19 10:16:00,65.5,47.4,30.22,NNE,25,3.4,3.6,52,0.00,SCT,,0.00,WeatherDisplay:10.37,2013-01-19 15:16:00,
2013-01-19 10:21:00,66.0,47.9,30.22,East,87,5.8,5.8,52,0.00,SCT,,0.00,WeatherDisplay:10.37,2013-01-19 15:21:00,
2013-01-19 10:31:00,67.1,47.8,30.22,East,96,9.2,9.2,50,0.00,SCT,,0.00,WeatherDisplay:10.37,2013-01-19 15:31:00,
2013-01-19 10:36:00,67.5,47.1,30.22,ENE,59,10.3,10.3,48,0.00,SCT,,0.00,WeatherDisplay:10.37,2013-01-19 15:36:00,
2013-01-19 10:46:00,68.2,46.6,30.22,ESE,108,3.6,3.6,46,0.00,SCT,,0.00,WeatherDisplay:10.37,2013-01-19 15:46:00,
2013-01-19 10:51:00,68.4,46.8,30.22,ENE,71,5.8,5.8,46,0.00,SCT,,0.00,WeatherDisplay:10.37,2013-01-19 15:51:00,
2013-01-19 11:00:00,69.1,47.4,30.25,NNE,28,3.6,3.6,46,0.00,SCT,,0.00,WeatherDisplay:10.37,2013-01-19 16:00:00,
2013-01-19 11:01:00,70.0,47.7,30.22,NE,44,8.1,8.1,45,0.00,CLR,,0.00,WeatherDisplay:10.37,2013-01-19 16:01:00,
2013-01-19 11:05:00,69.6,47.9,30.25,ESE,104,5.8,5.8,46,0.00,CLR,,0.00,WeatherDisplay:10.37,2013-01-19 16:05:00,
2013-01-19 11:10:00,70.0,47.7,30.22,East,83,5.8,5.8,45,0.00,CLR,,0.00,WeatherDisplay:10.37,2013-01-19 16:10:00,
2013-01-19 11:16:00,70.5,48.1,30.22,North,6,8.1,8.1,45,0.00,CLR,,0.00,WeatherDisplay:10.37,2013-01-19 16:16:00,
2013-01-19 11:21:00,70.9,47.9,30.22,ESE,114,9.2,9.2,44,0.00,CLR,,0.00,WeatherDisplay:10.37,2013-01-19 16:21:00,
2013-01-19 11:31:00,71.6,47.9,30.22,East,89,9.2,9.2,43,0.00,CLR,,0.00,WeatherDisplay:10.37,2013-01-19 16:31:00,
2013-01-19 11:36:00,72.1,48.4,30.22,ENE,72,9.2,9.2,43,0.00,CLR,,0.00,WeatherDisplay:10.37,2013-01-19 16:36:00,
2013-01-19 11:46:00,72.9,49.1,30.22,East,90,13.2,13.2,43,0.00,CLR,,0.00,WeatherDisplay:10.37,2013-01-19 16:46:00,
2013-01-19 11:51:00,73.0,47.9,30.22,ESE,105,9.2,9.2,41,0.00,CLR,,0.00,WeatherDisplay:10.37,2013-01-19 16:51:00,
2013-01-19 12:00:00,73.6,49.1,30.19,SW,229,5.8,5.8,42,0.00,CLR,,0.00,WeatherDisplay:10.37,2013-01-19 17:00:00,
2013-01-19 12:01:00,74.5,49.2,30.19,East,92,6.9,6.9,41,0.00,CLR,,0.00,WeatherDisplay:10.37,2013-01-19 17:01:00,
2013-01-19 12:05:00,73.9,49.4,30.19,ENE,62,8.1,8.1,42,0.00,CLR,,0.00,WeatherDisplay:10.37,2013-01-19 17:05:00,
2013-01-19 12:10:00,74.3,49.1,30.19,East,98,7.2,7.2,41,0.00,CLR,,0.00,WeatherDisplay:10.37,2013-01-19 17:10:00,
2013-01-19 12:16:00,74.8,48.9,30.19,East,79,9.2,9.2,40,0.00,CLR,,0.00,WeatherDisplay:10.37,2013-01-19 17:16:00,
2013-01-19 12:21:00,75.0,48.4,30.19,East,96,5.4,5.4,39,0.00,CLR,,0.00,WeatherDisplay:10.37,2013-01-19 17:21:00,
2013-01-19 12:31:00,75.2,47.1,30.19,NE,45,8.1,8.1,37,0.00,CLR,,0.00,WeatherDisplay:10.37,2013-01-19 17:31:00,
2013-01-19 12:36:00,75.4,48.0,30.19,NE,38,5.8,5.8,38,0.00,CLR,,0.00,WeatherDisplay:10.37,2013-01-19 17:36:00,
2013-01-19 12:46:00,75.7,49.7,30.16,ESE,111,10.3,10.3,40,0.00,CLR,,0.00,WeatherDisplay:10.37,2013-01-19 17:46:00,
2013-01-19 12:52:00,76.1,48.6,30.16,SE,135,6.3,6.3,38,0.00,CLR,,0.00,WeatherDisplay:10.37,2013-01-19 17:52:00,
2013-01-19 13:00:00,76.5,47.5,30.16,North,357,9.2,9.2,36,0.00,CLR,,0.00,WeatherDisplay:10.37,2013-01-19 18:00:00,
2013-01-19 13:01:00,76.5,49.0,30.16,East,82,8.1,8.1,38,0.00,BKN,,0.00,WeatherDisplay:10.37,2013-01-19 18:01:00,
2013-01-19 13:06:00,76.5,46.8,30.16,SSE,153,8.1,8.1,35,0.00,BKN,,0.00,WeatherDisplay:10.37,2013-01-19 18:06:00,
2013-01-19 13:16:00,77.0,48.0,30.16,ESE,106,4.6,4.6,36,0.00,BKN,,0.00,WeatherDisplay:10.37,2013-01-19 18:16:00,
2013-01-19 13:22:00,77.2,46.6,30.16,ESE,104,5.8,5.8,34,0.00,BKN,,0.00,WeatherDisplay:10.37,2013-01-19 18:22:00,
2013-01-19 13:31:00,76.5,48.2,30.16,East,91,9.2,9.2,37,0.00,BKN,,0.00,WeatherDisplay:10.37,2013-01-19 18:31:00,
2013-01-19 13:36:00,75.9,47.0,30.16,NNW,348,8.1,8.1,36,0.00,BKN,,0.00,WeatherDisplay:10.37,2013-01-19 18:36:00,
2013-01-19 13:46:00,76.3,47.4,30.13,North,357,3.4,3.4,36,0.00,BKN,,0.00,WeatherDisplay:10.37,2013-01-19 18:46:00,
2013-01-19 13:51:00,75.9,47.0,30.13,NNE,19,8.1,8.1,36,0.00,BKN,,0.00,WeatherDisplay:10.37,2013-01-19 18:51:00,
2013-01-19 14:01:00,75.7,49.0,30.13,ESE,105,6.3,6.3,39,0.00,BKN,,0.00,WeatherDisplay:10.37,2013-01-19 19:01:00,
2013-01-19 14:07:00,75.7,48.3,30.13,ENE,64,5.8,5.8,38,0.00,BKN,,0.00,WeatherDisplay:10.37,2013-01-19 19:07:00,
2013-01-19 14:16:00,75.9,47.8,30.13,East,92,5.8,5.8,37,0.00,BKN,,0.00,WeatherDisplay:10.37,2013-01-19 19:16:00,
2013-01-19 14:21:00,75.9,47.8,30.13,NE,45,5.8,5.8,37,0.00,BKN,,0.00,WeatherDisplay:10.37,2013-01-19 19:21:00,
2013-01-19 14:31:00,75.4,47.3,30.13,East,84,5.4,5.4,37,0.00,BKN,,0.00,WeatherDisplay:10.37,2013-01-19 19:31:00,
2013-01-19 14:36:00,75.4,47.3,30.13,East,94,5.8,5.8,37,0.00,BKN,,0.00,WeatherDisplay:10.37,2013-01-19 19:36:00,
2013-01-19 14:46:00,75.6,48.2,30.13,North,353,4.0,4.0,38,0.00,BKN,,0.00,WeatherDisplay:10.37,2013-01-19 19:46:00,
2013-01-19 14:51:00,75.6,47.5,30.13,North,349,4.9,4.9,37,0.00,BKN,,0.00,WeatherDisplay:10.37,2013-01-19 19:51:00,
2013-01-19 15:00:00,75.7,48.3,30.10,ESE,120,5.8,5.8,38,0.00,BKN,,0.00,WeatherDisplay:10.37,2013-01-19 20:00:00,
2013-01-19 15:01:00,76.5,48.2,30.10,East,82,3.4,3.6,37,0.00,OVC,,0.00,WeatherDisplay:10.37,2013-01-19 20:01:00,
2013-01-19 15:05:00,75.9,48.5,30.10,ENE,58,5.8,5.8,38,0.00,OVC,,0.00,WeatherDisplay:10.37,2013-01-19 20:05:00,
2013-01-19 15:11:00,76.5,48.2,30.10,East,83,8.1,8.1,37,0.00,OVC,,0.00,WeatherDisplay:10.37,2013-01-19 20:11:00,
2013-01-19 15:16:00,76.8,47.8,30.10,North,357,5.8,5.8,36,0.00,OVC,,0.00,WeatherDisplay:10.37,2013-01-19 20:16:00,
2013-01-19 15:21:00,76.6,47.7,30.10,East,85,4.0,4.0,36,0.00,OVC,,0.00,WeatherDisplay:10.37,2013-01-19 20:21:00,
2013-01-19 15:31:00,76.1,47.2,30.10,West,259,5.8,5.8,36,0.00,OVC,,0.00,WeatherDisplay:10.37,2013-01-19 20:31:00,
2013-01-19 15:36:00,75.9,47.8,30.10,North,0,4.6,4.6,37,0.00,OVC,,0.00,WeatherDisplay:10.37,2013-01-19 20:36:00,
2013-01-19 15:46:00,77.2,48.2,30.10,NNE,29,5.8,5.8,36,0.00,OVC,,0.00,WeatherDisplay:10.37,2013-01-19 20:46:00,
2013-01-19 15:51:00,77.2,47.4,30.10,ENE,69,6.3,6.3,35,0.00,OVC,,0.00,WeatherDisplay:10.37,2013-01-19 20:51:00,
2013-01-19 16:00:00,77.7,47.9,30.10,East,91,8.1,8.1,35,0.00,OVC,,0.00,WeatherDisplay:10.37,2013-01-19 21:00:00,
2013-01-19 16:01:00,77.7,47.1,30.13,ESE,110,5.8,5.8,34,0.00,OVC,,0.00,WeatherDisplay:10.37,2013-01-19 21:01:00,
2013-01-19 16:05:00,77.7,47.1,30.10,NNE,23,5.8,5.8,34,0.00,OVC,,0.00,WeatherDisplay:10.37,2013-01-19 21:05:00,
2013-01-19 16:10:00,77.7,47.1,30.10,ESE,117,3.6,3.6,34,0.00,OVC,,0.00,WeatherDisplay:10.37,2013-01-19 21:10:00,
2013-01-19 16:16:00,77.4,46.8,30.13,ESE,116,3.6,0.0,34,0.00,OVC,,0.00,WeatherDisplay:10.37,2013-01-19 21:16:00,
2013-01-19 16:22:00,77.0,47.2,30.13,North,0,5.8,5.8,35,0.00,OVC,,0.00,WeatherDisplay:10.37,2013-01-19 21:22:00,
2013-01-19 16:31:00,76.5,46.8,30.13,NNW,328,5.8,5.8,35,0.00,OVC,,0.00,WeatherDisplay:10.37,2013-01-19 21:31:00,
2013-01-19 16:36:00,76.3,47.4,30.13,ESE,110,3.4,3.4,36,0.00,OVC,,0.00,WeatherDisplay:10.37,2013-01-19 21:36:00,
2013-01-19 16:46:00,75.7,47.6,30.13,NE,38,4.6,4.6,37,0.00,OVC,,0.00,WeatherDisplay:10.37,2013-01-19 21:46:00,
2013-01-19 16:52:00,75.2,47.1,30.13,East,90,3.4,3.4,37,0.00,OVC,,0.00,WeatherDisplay:10.37,2013-01-19 21:52:00,
2013-01-19 17:01:00,74.5,47.2,30.13,NE,47,2.7,0.0,38,0.00,OVC,,0.00,WeatherDisplay:10.37,2013-01-19 22:01:00,
2013-01-19 17:06:00,74.3,47.7,30.13,NE,41,3.4,3.4,39,0.00,OVC,,0.00,WeatherDisplay:10.37,2013-01-19 22:06:00,
2013-01-19 17:16:00,73.8,47.9,30.13,NNE,16,3.6,3.6,40,0.00,OVC,,0.00,WeatherDisplay:10.37,2013-01-19 22:16:00,
2013-01-19 17:21:00,73.8,48.6,30.13,ESE,103,2.7,2.7,41,0.00,OVC,,0.00,WeatherDisplay:10.37,2013-01-19 22:21:00,
2013-01-19 17:31:00,73.4,48.3,30.10,East,86,4.6,4.6,41,0.00,OVC,,0.00,WeatherDisplay:10.37,2013-01-19 22:31:00,
2013-01-19 17:36:00,73.2,48.7,30.10,East,85,3.4,3.4,42,0.00,OVC,,0.00,WeatherDisplay:10.37,2013-01-19 22:36:00,
2013-01-19 17:46:00,72.9,48.4,30.13,NNW,343,3.6,3.6,42,0.00,OVC,,0.00,WeatherDisplay:10.37,2013-01-19 22:46:00,
2013-01-19 17:51:00,72.7,48.9,30.13,ENE,70,4.0,4.0,43,0.00,OVC,,0.00,WeatherDisplay:10.37,2013-01-19 22:51:00,
2013-01-19 18:00:00,72.5,48.7,30.13,North,0,3.6,3.6,43,0.00,OVC,,0.00,WeatherDisplay:10.37,2013-01-19 23:00:00,
2013-01-19 18:01:00,72.3,48.6,30.13,North,2,4.6,0.0,43,0.00,OVC,,0.00,WeatherDisplay:10.37,2013-01-19 23:01:00,
2013-01-19 18:05:00,72.3,48.6,30.13,East,92,3.6,3.6,43,0.00,OVC,,0.00,WeatherDisplay:10.37,2013-01-19 23:05:00,
2013-01-19 18:10:00,72.3,48.6,30.13,NNE,20,4.9,4.9,43,0.00,OVC,,0.00,WeatherDisplay:10.37,2013-01-19 23:10:00,
2013-01-19 18:16:00,72.1,48.4,30.13,NNE,12,3.4,3.4,43,0.00,OVC,,0.00,WeatherDisplay:10.37,2013-01-19 23:16:00,
2013-01-19 18:21:00,72.1,49.0,30.13,NNE,30,2.7,0.0,44,0.00,OVC,,0.00,WeatherDisplay:10.37,2013-01-19 23:21:00,
2013-01-19 18:31:00,71.6,49.1,30.13,NE,47,3.6,3.6,45,0.00,OVC,,0.00,WeatherDisplay:10.37,2013-01-19 23:31:00,
2013-01-19 18:32:00,71.8,48.7,30.13,NNE,29,3.4,3.4,44,0.00,OVC,,0.00,WeatherDisplay:10.37,2013-01-19 23:32:00,
2013-01-19 18:37:00,71.6,48.5,30.13,SW,230,3.4,3.4,44,0.00,OVC,,0.00,WeatherDisplay:10.37,2013-01-19 23:37:00,
2013-01-19 18:46:00,71.6,49.1,30.13,ENE,60,4.6,4.6,45,0.00,OVC,,0.00,WeatherDisplay:10.37,2013-01-19 23:46:00,
2013-01-19 18:51:00,71.6,49.1,30.13,SE,129,3.1,0.0,45,0.00,OVC,,0.00,WeatherDisplay:10.37,2013-01-19 23:51:00,
2013-01-19 19:00:00,71.4,49.6,30.16,East,96,2.3,0.0,46,0.00,OVC,,0.00,WeatherDisplay:10.37,2013-01-20 00:00:00,
2013-01-19 19:01:00,71.2,49.4,30.16,ENE,62,5.8,5.8,46,0.00,OVC,,0.00,WeatherDisplay:10.37,2013-01-20 00:01:00,
2013-01-19 19:05:00,71.4,49.6,30.16,ESE,106,4.0,4.0,46,0.00,OVC,,0.00,WeatherDisplay:10.37,2013-01-20 00:05:00,
2013-01-19 19:10:00,71.2,49.4,30.16,NE,49,5.8,0.0,46,0.00,OVC,,0.00,WeatherDisplay:10.37,2013-01-20 00:10:00,
2013-01-19 19:16:00,71.2,49.4,30.16,NE,53,3.4,3.4,46,0.00,OVC,,0.00,WeatherDisplay:10.37,2013-01-20 00:16:00,
2013-01-19 19:22:00,71.2,50.0,30.16,NNE,20,5.8,5.8,47,0.00,OVC,,0.00,WeatherDisplay:10.37,2013-01-20 00:22:00,
2013-01-19 19:31:00,71.1,49.8,30.16,NNW,345,5.8,5.8,47,0.00,OVC,,0.00,WeatherDisplay:10.37,2013-01-20 00:31:00,
2013-01-19 19:36:00,70.9,49.6,30.16,NNE,32,4.6,4.6,47,0.00,OVC,,0.00,WeatherDisplay:10.37,2013-01-20 00:36:00,
2013-01-19 19:46:00,70.7,50.0,30.16,NNE,29,5.4,0.0,48,0.00,OVC,,0.00,WeatherDisplay:10.37,2013-01-20 00:46:00,
2013-01-19 19:51:00,70.5,49.9,30.16,ESE,120,3.4,0.0,48,0.00,OVC,,0.00,WeatherDisplay:10.37,2013-01-20 00:51:00,
2013-01-19 20:00:00,70.3,50.3,30.16,NW,326,5.8,5.8,49,0.00,OVC,,0.00,WeatherDisplay:10.37,2013-01-20 01:00:00,
2013-01-19 20:01:00,70.2,50.6,30.16,NNE,27,3.4,3.4,50,0.00,OVC,,0.00,WeatherDisplay:10.37,2013-01-20 01:01:00,
2013-01-19 20:05:00,70.2,50.1,30.16,NNE,15,3.4,3.4,49,0.00,OVC,,0.00,WeatherDisplay:10.37,2013-01-20 01:05:00,
2013-01-19 20:10:00,70.2,50.1,30.16,North,5,3.4,3.4,49,0.00,OVC,,0.00,WeatherDisplay:10.37,2013-01-20 01:10:00,
2013-01-19 20:16:00,70.0,50.5,30.16,NW,316,3.4,3.4,50,0.00,OVC,,0.00,WeatherDisplay:10.37,2013-01-20 01:16:00,
2013-01-19 20:22:00,70.0,50.5,30.16,South,179,3.4,0.0,50,0.00,OVC,,0.00,WeatherDisplay:10.37,2013-01-20 01:22:00,
2013-01-19 20:31:00,70.0,50.5,30.13,ESE,111,3.4,0.0,50,0.00,OVC,,0.00,WeatherDisplay:10.37,2013-01-20 01:31:00,
2013-01-19 20:36:00,69.8,50.3,30.13,NE,48,3.4,3.4,50,0.00,OVC,,0.00,WeatherDisplay:10.37,2013-01-20 01:36:00,
2013-01-19 20:46:00,69.6,50.7,30.16,NNE,25,3.4,0.0,51,0.00,OVC,,0.00,WeatherDisplay:10.37,2013-01-20 01:46:00,
2013-01-19 20:52:00,69.4,50.5,30.16,NE,46,3.4,0.0,51,0.00,OVC,,0.00,WeatherDisplay:10.37,2013-01-20 01:52:00,
2013-01-19 21:00:00,69.1,50.7,30.16,NNE,28,2.7,0.0,52,0.00,OVC,,0.00,WeatherDisplay:10.37,2013-01-20 02:00:00,
2013-01-19 21:01:00,68.7,50.9,30.16,NE,48,3.4,3.4,53,0.00,OVC,,0.00,WeatherDisplay:10.37,2013-01-20 02:01:00,
2013-01-19 21:06:00,68.9,51.1,30.16,East,97,2.7,0.0,53,0.00,OVC,,0.00,WeatherDisplay:10.37,2013-01-20 02:06:00,
2013-01-19 21:11:00,68.7,50.9,30.16,ENE,59,3.4,3.4,53,0.00,OVC,,0.00,WeatherDisplay:10.37,2013-01-20 02:11:00,
2013-01-19 21:16:00,68.5,51.2,30.16,SE,125,2.3,0.0,54,0.00,BKN,,0.00,WeatherDisplay:10.37,2013-01-20 02:16:00,
2013-01-19 21:21:00,68.4,51.6,30.16,ENE,58,3.4,0.0,55,0.00,BKN,,0.00,WeatherDisplay:10.37,2013-01-20 02:21:00,
2013-01-19 21:31:00,68.2,52.4,30.16,NE,56,3.4,3.4,57,0.00,BKN,,0.00,WeatherDisplay:10.37,2013-01-20 02:31:00,
2013-01-19 21:36:00,68.0,52.2,30.16,NNE,25,3.4,0.0,57,0.00,BKN,,0.00,WeatherDisplay:10.37,2013-01-20 02:36:00,
2013-01-19 21:46:00,67.6,52.8,30.16,East,92,4.9,0.0,59,0.00,BKN,,0.00,WeatherDisplay:10.37,2013-01-20 02:46:00,
2013-01-19 21:47:00,67.8,52.5,30.16,ESE,102,2.3,0.0,58,0.00,BKN,,0.00,WeatherDisplay:10.37,2013-01-20 02:47:00,
2013-01-19 21:52:00,67.6,52.3,30.16,NNE,18,3.6,3.6,58,0.00,BKN,,0.00,WeatherDisplay:10.37,2013-01-20 02:52:00,
2013-01-19 22:00:00,67.5,53.5,30.16,NE,54,5.8,0.0,61,0.00,BKN,,0.00,WeatherDisplay:10.37,2013-01-20 03:00:00,
2013-01-19 22:01:00,67.3,53.4,30.16,NNW,335,3.1,0.0,61,0.00,CLR,,0.00,WeatherDisplay:10.37,2013-01-20 03:01:00,
2013-01-19 22:05:00,67.5,53.5,30.16,NNE,15,3.4,3.4,61,0.00,CLR,,0.00,WeatherDisplay:10.37,2013-01-20 03:05:00,
2013-01-19 22:10:00,67.3,53.4,30.16,NNE,27,2.3,0.0,61,0.00,CLR,,0.00,WeatherDisplay:10.37,2013-01-20 03:10:00,
2013-01-19 22:16:00,67.3,53.8,30.16,East,95,2.3,0.0,62,0.00,CLR,,0.00,WeatherDisplay:10.37,2013-01-20 03:16:00,
2013-01-19 22:21:00,67.1,53.6,30.16,NE,51,2.3,0.0,62,0.00,CLR,,0.00,WeatherDisplay:10.37,2013-01-20 03:21:00,
2013-01-19 22:31:00,66.9,53.5,30.13,North,11,0.0,0.0,62,0.00,CLR,,0.00,WeatherDisplay:10.37,2013-01-20 03:31:00,
2013-01-19 22:36:00,66.9,53.9,30.13,North,0,0.0,0.0,63,0.00,CLR,,0.00,WeatherDisplay:10.37,2013-01-20 03:36:00,
2013-01-19 22:46:00,66.7,54.2,30.16,NNE,30,2.3,0.0,64,0.00,CLR,,0.00,WeatherDisplay:10.37,2013-01-20 03:46:00,
2013-01-19 22:51:00,66.7,54.2,30.16,North,349,3.4,3.4,64,0.00,CLR,,0.00,WeatherDisplay:10.37,2013-01-20 03:51:00,
2013-01-19 23:00:00,66.6,54.4,30.16,North,2,2.3,0.0,65,0.00,CLR,,0.00,WeatherDisplay:10.37,2013-01-20 04:00:00,
2013-01-19 23:01:00,66.6,54.8,30.13,East,96,3.4,0.0,66,0.00,CLR,,0.00,WeatherDisplay:10.37,2013-01-20 04:01:00,
2013-01-19 23:05:00,66.6,54.4,30.16,North,3,2.3,0.0,65,0.00,CLR,,0.00,WeatherDisplay:10.37,2013-01-20 04:05:00,
2013-01-19 23:10:00,66.6,54.8,30.13,NNE,29,3.1,0.0,66,0.00,CLR,,0.00,WeatherDisplay:10.37,2013-01-20 04:10:00,
2013-01-19 23:16:00,66.4,55.1,30.16,East,83,3.4,0.0,67,0.00,CLR,,0.00,WeatherDisplay:10.37,2013-01-20 04:16:00,
2013-01-19 23:17:00,66.4,54.7,30.13,North,4,2.7,0.0,66,0.00,CLR,,0.00,WeatherDisplay:10.37,2013-01-20 04:17:00,
2013-01-19 23:22:00,66.4,54.7,30.13,NE,39,2.7,0.0,66,0.00,CLR,,0.00,WeatherDisplay:10.37,2013-01-20 04:22:00,
2013-01-19 23:31:00,66.4,55.1,30.16,North,353,3.1,0.0,67,0.00,CLR,,0.00,WeatherDisplay:10.37,2013-01-20 04:31:00,
2013-01-19 23:36:00,66.4,55.1,30.16,North,8,3.4,0.0,67,0.00,CLR,,0.00,WeatherDisplay:10.37,2013-01-20 04:36:00,
2013-01-19 23:46:00,66.2,54.9,30.13,East,97,3.4,0.0,67,0.00,CLR,,0.00,WeatherDisplay:10.37,2013-01-20 04:46:00,
2013-01-19 23:52:00,66.2,54.9,30.13,North,357,0.0,0.0,67,0.00,CLR,,0.00,WeatherDisplay:10.37,2013-01-20 04:52:00,